createdAt,value
2017-07-05T00:01:10.293Z,2.70
2017-07-05T00:03:42.750Z,3.30
2017-07-05T00:06:15.181Z,3.00
2017-07-05T00:08:47.840Z,3.13
2017-07-05T00:11:20.028Z,3.20
2017-07-05T00:13:52.690Z,3.00
2017-07-05T00:16:24.805Z,2.90
2017-07-05T00:18:57.217Z,2.80
2017-07-05T00:21:29.616Z,3.03
2017-07-05T00:24:02.056Z,3.33
2017-07-05T00:26:34.411Z,3.20
2017-07-05T00:29:07.733Z,3.37
2017-07-05T00:31:40.533Z,3.00
2017-07-05T00:34:13.192Z,3.40
2017-07-05T00:36:44.950Z,3.30
2017-07-05T00:39:17.372Z,3.20
2017-07-05T00:41:49.712Z,3.37
2017-07-05T00:44:22.245Z,3.47
2017-07-05T00:46:54.396Z,3.50
2017-07-05T00:49:26.737Z,3.50
2017-07-05T00:51:59.213Z,3.70
2017-07-05T00:54:31.661Z,3.90
2017-07-05T00:57:04.993Z,3.63
2017-07-05T00:59:37.340Z,3.80
2017-07-05T01:02:09.859Z,3.50
2017-07-05T01:04:42.340Z,3.33
2017-07-05T01:07:15.528Z,3.47
2017-07-05T01:09:47.994Z,3.17
2017-07-05T01:12:20.479Z,3.60
2017-07-05T01:14:52.913Z,3.67
2017-07-05T01:17:25.207Z,3.30
2017-07-05T01:19:57.882Z,3.30
2017-07-05T01:22:30.147Z,3.10
2017-07-05T01:25:02.531Z,3.20
2017-07-05T01:27:34.978Z,3.30
2017-07-05T01:30:07.411Z,2.93
2017-07-05T01:32:39.772Z,3.30
2017-07-05T01:35:11.936Z,3.13
2017-07-05T01:37:44.413Z,3.30
2017-07-05T01:40:16.760Z,3.40
2017-07-05T01:42:49.357Z,3.27
2017-07-05T01:45:22.388Z,3.20
2017-07-05T01:47:54.545Z,3.47
2017-07-05T01:50:26.880Z,3.00
2017-07-05T01:52:59.357Z,3.73
2017-07-05T01:55:31.742Z,3.70
2017-07-05T01:58:04.047Z,3.47
2017-07-05T02:00:36.546Z,3.30
2017-07-05T02:03:09.061Z,3.80
2017-07-05T02:05:41.344Z,3.20
2017-07-05T02:08:13.799Z,3.60
2017-07-05T02:10:46.812Z,4.03
2017-07-05T02:13:18.742Z,4.13
2017-07-05T02:15:51.604Z,3.50
2017-07-05T02:18:23.780Z,3.40
2017-07-05T02:20:56.034Z,4.00
2017-07-05T02:23:28.424Z,3.90
2017-07-05T02:26:00.813Z,3.33
2017-07-05T02:28:33.173Z,4.07
2017-07-05T02:31:05.641Z,3.70
2017-07-05T02:33:38.056Z,3.63
2017-07-05T02:36:10.410Z,4.30
2017-07-05T02:38:43.026Z,3.23
2017-07-05T02:41:15.449Z,4.20
2017-07-05T02:43:47.755Z,4.33
2017-07-05T02:46:20.083Z,3.90
2017-07-05T02:48:52.520Z,3.57
2017-07-05T02:51:24.993Z,3.20
2017-07-05T02:53:57.424Z,3.83
2017-07-05T02:56:29.726Z,3.60
2017-07-05T02:59:02.216Z,4.30
2017-07-05T03:01:34.581Z,3.73
2017-07-05T03:04:06.882Z,3.50
2017-07-05T03:06:39.623Z,3.60
2017-07-05T03:09:11.905Z,3.53
2017-07-05T03:11:44.181Z,3.83
2017-07-05T03:14:16.731Z,4.00
2017-07-05T03:16:49.109Z,4.17
2017-07-05T03:19:22.539Z,4.20
2017-07-05T03:21:54.755Z,3.70
2017-07-05T03:24:28.482Z,3.33
2017-07-05T03:27:00.684Z,4.10
2017-07-05T03:29:33.021Z,4.17
2017-07-05T03:32:05.410Z,3.87
2017-07-05T03:34:38.869Z,3.80
2017-07-05T03:37:11.260Z,3.60
2017-07-05T03:39:43.637Z,3.73
2017-07-05T03:42:16.038Z,3.40
2017-07-05T03:44:48.548Z,3.57
2017-07-05T03:47:20.864Z,4.10
2017-07-05T03:50:00.435Z,3.60
2017-07-05T03:52:32.881Z,3.10
2017-07-05T03:55:05.397Z,3.43
2017-07-05T03:57:37.775Z,3.33
2017-07-05T04:00:10.557Z,3.13
2017-07-05T04:02:42.461Z,3.47
2017-07-05T04:05:14.877Z,3.50
2017-07-05T04:07:47.234Z,3.03
2017-07-05T04:10:20.669Z,3.40
2017-07-05T04:12:53.163Z,3.17
2017-07-05T04:15:25.693Z,3.00
2017-07-05T04:17:58.749Z,3.50
2017-07-05T04:20:31.462Z,3.40
2017-07-05T04:23:03.920Z,3.50
2017-07-05T04:25:36.342Z,3.17
2017-07-05T04:28:08.800Z,3.43
2017-07-05T04:30:41.147Z,2.93
2017-07-05T04:33:13.540Z,3.73
2017-07-05T04:35:45.885Z,3.07
2017-07-05T04:38:18.201Z,3.47
2017-07-05T04:40:50.560Z,3.57
2017-07-05T04:43:23.032Z,3.33
2017-07-05T04:45:55.273Z,3.00
2017-07-05T04:48:27.587Z,2.80
2017-07-05T04:51:00.340Z,2.80
2017-07-05T04:53:32.446Z,3.17
2017-07-05T04:56:04.880Z,3.13
2017-07-05T04:58:38.326Z,2.77
2017-07-05T05:01:10.878Z,2.30
2017-07-05T05:03:43.295Z,1.97
2017-07-05T05:06:15.710Z,2.20
2017-07-05T05:08:47.977Z,2.10
2017-07-05T05:11:20.757Z,2.50
2017-07-05T05:13:52.818Z,2.40
2017-07-05T05:16:25.210Z,2.00
2017-07-05T05:18:57.649Z,2.17
2017-07-05T05:21:30.062Z,2.50
2017-07-05T05:24:02.324Z,2.40
2017-07-05T05:26:34.696Z,2.20
2017-07-05T05:29:07.129Z,2.57
2017-07-05T05:31:39.449Z,2.50
2017-07-05T05:34:11.719Z,2.40
2017-07-05T05:36:45.161Z,2.57
2017-07-05T05:39:17.492Z,2.53
2017-07-05T05:41:49.925Z,2.30
2017-07-05T05:44:22.269Z,1.87
2017-07-05T05:46:54.817Z,2.30
2017-07-05T05:49:27.109Z,2.20
2017-07-05T05:51:59.434Z,1.80
2017-07-05T05:54:31.905Z,1.90
2017-07-05T05:57:04.225Z,2.90
2017-07-05T05:59:36.598Z,2.20
2017-07-05T06:02:08.967Z,2.20
2017-07-05T06:04:41.197Z,2.40
2017-07-05T06:07:13.681Z,2.60
2017-07-05T06:09:46.052Z,2.37
2017-07-05T06:12:18.365Z,2.33
2017-07-05T06:14:50.803Z,2.33
2017-07-05T06:17:23.169Z,2.27
2017-07-05T06:19:55.592Z,2.20
2017-07-05T06:22:27.923Z,2.20
2017-07-05T06:25:00.323Z,2.50
2017-07-05T06:27:32.845Z,1.80
2017-07-05T06:30:05.213Z,2.47
2017-07-05T06:32:37.670Z,2.50
2017-07-05T06:35:10.049Z,2.40
2017-07-05T06:37:42.477Z,2.70
2017-07-05T06:40:14.849Z,2.90
2017-07-05T06:42:47.313Z,2.67
2017-07-05T06:45:19.752Z,3.00
2017-07-05T06:47:53.131Z,2.70
2017-07-05T06:50:25.782Z,2.50
2017-07-05T06:52:57.920Z,3.00
2017-07-05T06:55:30.327Z,3.30
2017-07-05T06:58:02.739Z,3.33
2017-07-05T07:00:35.246Z,3.10
2017-07-05T07:03:07.802Z,2.60
2017-07-05T07:05:40.201Z,2.47
2017-07-05T07:08:12.666Z,2.60
2017-07-05T07:10:44.956Z,2.40
2017-07-05T07:13:17.717Z,2.57
2017-07-05T07:15:49.705Z,2.40
2017-07-05T07:18:22.108Z,2.80
2017-07-05T07:20:54.553Z,2.43
2017-07-05T07:23:26.939Z,2.60
2017-07-05T07:26:00.470Z,2.70
2017-07-05T07:28:38.914Z,2.50
2017-07-05T07:31:11.332Z,3.07
2017-07-05T07:33:43.405Z,2.80
2017-07-05T07:36:15.773Z,3.30
2017-07-05T07:38:48.156Z,2.50
2017-07-05T07:41:20.434Z,2.50
2017-07-05T07:43:53.207Z,2.60
2017-07-05T07:46:25.841Z,3.13
2017-07-05T07:48:57.850Z,2.60
2017-07-05T07:51:30.385Z,2.70
2017-07-05T07:54:02.883Z,2.40
2017-07-05T07:56:35.225Z,3.20
2017-07-05T07:59:07.641Z,3.07
2017-07-05T08:01:40.068Z,3.03
2017-07-05T08:04:12.423Z,3.50
2017-07-05T08:06:44.901Z,3.23
2017-07-05T08:09:17.298Z,2.83
2017-07-05T08:11:50.521Z,3.23
2017-07-05T08:14:23.013Z,3.60
2017-07-05T08:16:55.694Z,3.50
2017-07-05T08:19:27.889Z,2.97
2017-07-05T08:22:01.023Z,3.30
2017-07-05T08:24:33.860Z,3.03
2017-07-05T08:27:06.060Z,2.73
2017-07-05T08:29:38.441Z,3.00
2017-07-05T08:32:10.794Z,2.83
2017-07-05T08:34:43.346Z,2.83
2017-07-05T08:37:15.748Z,3.17
2017-07-05T08:39:48.200Z,3.30
2017-07-05T08:42:20.629Z,3.43
2017-07-05T08:44:53.040Z,3.17
2017-07-05T08:47:25.649Z,3.80
2017-07-05T08:49:57.996Z,3.50
2017-07-05T08:52:30.411Z,3.57
2017-07-05T08:55:02.786Z,3.40
2017-07-05T08:57:35.112Z,3.27
2017-07-05T09:00:07.542Z,3.50
2017-07-05T09:02:39.848Z,3.40
2017-07-05T09:05:12.191Z,3.27
2017-07-05T09:07:44.686Z,3.40
2017-07-05T09:10:17.196Z,3.40
2017-07-05T09:12:49.546Z,2.57
2017-07-05T09:15:21.945Z,2.57
2017-07-05T09:17:54.317Z,2.50
2017-07-05T09:20:26.598Z,3.03
2017-07-05T09:22:58.843Z,3.33
2017-07-05T09:25:31.310Z,3.53
2017-07-05T09:28:03.645Z,3.13
2017-07-05T09:30:36.403Z,2.77
2017-07-05T09:33:08.532Z,2.87
2017-07-05T09:35:40.976Z,3.13
2017-07-05T09:38:13.457Z,2.93
2017-07-05T09:40:45.790Z,2.87
2017-07-05T09:43:18.156Z,3.00
2017-07-05T09:45:50.636Z,2.90
2017-07-05T09:48:23.141Z,2.77
2017-07-05T09:50:55.357Z,3.37
2017-07-05T09:53:28.038Z,3.07
2017-07-05T09:56:01.160Z,2.50
2017-07-05T09:58:33.803Z,3.00
2017-07-05T10:01:06.189Z,3.60
2017-07-05T10:03:38.789Z,2.83
2017-07-05T10:06:11.178Z,2.63
2017-07-05T10:08:44.062Z,2.53
2017-07-05T10:11:15.977Z,2.87
2017-07-05T10:13:48.386Z,2.57
2017-07-05T10:16:20.978Z,2.63
2017-07-05T10:18:53.394Z,2.83
2017-07-05T10:21:25.826Z,3.73
2017-07-05T10:23:58.246Z,2.77
2017-07-05T10:26:35.806Z,3.40
2017-07-05T10:29:08.051Z,2.90
2017-07-05T10:31:40.727Z,2.37
2017-07-05T10:34:12.958Z,2.67
2017-07-05T10:36:45.302Z,2.77
2017-07-05T10:39:17.637Z,3.13
2017-07-05T10:41:49.958Z,2.80
2017-07-05T10:44:22.277Z,2.70
2017-07-05T10:46:54.753Z,2.37
2017-07-05T10:49:27.113Z,2.63
2017-07-05T10:51:59.501Z,2.90
2017-07-05T10:54:31.705Z,2.60
2017-07-05T10:57:03.957Z,3.00
2017-07-05T10:59:36.649Z,3.17
2017-07-05T11:02:08.697Z,3.13
2017-07-05T11:04:41.730Z,3.00
2017-07-05T11:07:14.469Z,3.07
2017-07-05T11:09:46.805Z,2.63
2017-07-05T11:12:19.195Z,2.90
2017-07-05T11:14:51.460Z,3.00
2017-07-05T11:17:24.224Z,2.90
2017-07-05T11:19:56.297Z,2.93
2017-07-05T11:22:28.740Z,3.43
2017-07-05T11:25:01.329Z,3.50
2017-07-05T11:27:33.637Z,3.20
2017-07-05T11:30:06.487Z,3.77
2017-07-05T11:32:38.718Z,3.30
2017-07-05T11:35:11.464Z,2.90
2017-07-05T11:37:43.618Z,2.47
2017-07-05T11:40:15.979Z,3.87
2017-07-05T11:42:48.968Z,3.73
2017-07-05T11:45:21.723Z,3.60
2017-07-05T11:47:54.171Z,3.50
2017-07-05T11:50:26.632Z,3.30
2017-07-05T11:52:59.022Z,3.10
2017-07-05T11:55:31.430Z,3.20
2017-07-05T11:58:03.822Z,3.40
2017-07-05T12:00:36.166Z,3.07
2017-07-05T12:03:08.801Z,3.70
2017-07-05T12:05:41.002Z,4.00
2017-07-05T12:08:14.289Z,3.90
2017-07-05T12:10:46.856Z,4.00
2017-07-05T12:13:19.264Z,4.10
2017-07-05T12:15:51.576Z,2.90
2017-07-05T12:18:24.273Z,3.13
2017-07-05T12:20:56.457Z,4.03
2017-07-05T12:23:28.744Z,4.00
2017-07-05T12:26:01.548Z,4.27
2017-07-05T12:28:33.543Z,3.80
2017-07-05T12:31:05.950Z,3.77
2017-07-05T12:33:38.337Z,3.30
2017-07-05T12:36:10.814Z,3.00
2017-07-05T12:38:43.311Z,4.10
2017-07-05T12:41:15.750Z,2.80
2017-07-05T12:43:48.430Z,2.80
2017-07-05T12:46:21.531Z,2.80
2017-07-05T12:48:53.956Z,3.03
2017-07-05T12:51:26.315Z,3.53
2017-07-05T12:53:58.618Z,4.30
2017-07-05T12:56:30.924Z,3.70
2017-07-05T12:59:04.338Z,3.10
2017-07-05T13:01:36.773Z,3.90
2017-07-05T13:04:09.173Z,4.23
2017-07-05T13:06:41.885Z,3.90
2017-07-05T13:09:14.013Z,3.20
2017-07-05T13:11:46.328Z,3.93
2017-07-05T13:16:58.104Z,4.70
2017-07-05T13:19:30.573Z,4.40
2017-07-05T13:22:03.010Z,4.67
2017-07-05T13:24:35.398Z,4.10
2017-07-05T13:27:07.833Z,3.20
2017-07-05T13:29:40.241Z,3.50
2017-07-05T13:32:12.517Z,4.00
2017-07-05T13:34:45.005Z,4.27
2017-07-05T13:37:17.350Z,4.30
2017-07-05T13:39:49.872Z,4.90
2017-07-05T13:42:22.310Z,3.90
2017-07-05T13:45:01.672Z,2.93
2017-07-05T13:47:34.178Z,4.17
2017-07-05T13:50:06.635Z,4.07
2017-07-05T13:52:38.995Z,3.70
2017-07-05T13:55:11.414Z,4.40
2017-07-05T13:57:43.940Z,3.70
2017-07-05T14:00:16.190Z,4.93
2017-07-05T14:02:48.592Z,4.10
2017-07-05T14:05:21.060Z,3.63
2017-07-05T14:07:53.581Z,3.03
2017-07-05T14:10:25.937Z,3.20
2017-07-05T14:12:58.436Z,4.07
2017-07-05T14:15:30.805Z,3.50
2017-07-05T14:18:03.143Z,3.50
2017-07-05T14:20:35.584Z,3.73
2017-07-05T14:23:08.093Z,3.63
2017-07-05T14:25:40.496Z,3.93
2017-07-05T14:28:12.920Z,3.50
2017-07-05T14:30:45.461Z,4.27
2017-07-05T14:33:17.766Z,3.20
2017-07-05T14:35:50.457Z,3.73
2017-07-05T14:38:22.617Z,3.60
2017-07-05T14:40:54.938Z,4.20
2017-07-05T14:43:27.173Z,3.57
2017-07-05T14:45:59.665Z,4.90
2017-07-05T14:48:32.209Z,4.43
2017-07-05T14:51:04.589Z,3.37
2017-07-05T14:53:36.993Z,5.50
2017-07-05T14:56:09.317Z,4.40
2017-07-05T14:58:41.648Z,4.43
2017-07-05T15:01:14.510Z,3.40
2017-07-05T15:03:46.340Z,3.90
2017-07-05T15:06:18.782Z,4.40
2017-07-05T15:08:51.198Z,4.00
2017-07-05T15:11:23.725Z,3.80
2017-07-05T15:13:56.141Z,4.27
2017-07-05T15:16:28.492Z,5.10
2017-07-05T15:19:00.680Z,4.73
2017-07-05T15:21:33.111Z,4.40
2017-07-05T15:24:05.464Z,4.60
2017-07-05T15:26:37.870Z,4.60
2017-07-05T15:29:10.082Z,4.40
2017-07-05T15:31:42.572Z,4.13
2017-07-05T15:34:14.961Z,4.40
2017-07-05T15:36:48.097Z,4.20
2017-07-05T15:39:20.909Z,3.80
2017-07-05T15:41:53.018Z,4.70
2017-07-05T15:44:25.512Z,4.03
2017-07-05T15:46:57.964Z,6.33
2017-07-05T15:49:30.367Z,4.90
2017-07-05T15:52:02.696Z,3.70
2017-07-05T15:54:35.268Z,3.80
2017-07-05T15:57:07.472Z,4.50
2017-07-05T15:59:39.836Z,4.27
2017-07-05T16:02:12.285Z,4.20
2017-07-05T16:04:45.580Z,4.30
2017-07-05T16:07:17.989Z,4.37
2017-07-05T16:09:50.331Z,3.90
2017-07-05T16:12:22.717Z,4.07
2017-07-05T16:14:55.166Z,4.83
2017-07-05T16:17:27.677Z,4.87
2017-07-05T16:20:01.009Z,4.43
2017-07-05T16:22:33.566Z,4.80
2017-07-05T16:25:06.107Z,4.47
2017-07-05T16:27:38.176Z,5.27
2017-07-05T16:30:10.556Z,5.23
2017-07-05T16:32:42.971Z,5.43
2017-07-05T16:35:15.318Z,4.67
2017-07-05T16:37:47.684Z,5.87
2017-07-05T16:40:20.021Z,5.43
2017-07-05T16:42:52.368Z,4.97
2017-07-05T16:45:24.699Z,6.03
2017-07-05T16:47:56.989Z,5.63
2017-07-05T16:50:29.380Z,4.93
2017-07-05T16:53:01.777Z,4.93
2017-07-05T16:55:34.976Z,4.80
2017-07-05T16:58:07.513Z,5.43
2017-07-05T17:00:39.841Z,5.20
2017-07-05T17:03:12.337Z,4.93
2017-07-05T17:05:44.667Z,4.90
2017-07-05T17:08:17.203Z,5.77
2017-07-05T17:10:49.690Z,5.00
2017-07-05T17:13:22.083Z,4.90
2017-07-05T17:15:54.601Z,5.00
2017-07-05T17:18:27.050Z,4.70
2017-07-05T17:20:59.205Z,4.67
2017-07-05T17:23:31.524Z,4.50
2017-07-05T17:26:03.911Z,4.63
2017-07-05T17:28:36.170Z,4.10
2017-07-05T17:31:08.512Z,4.57
2017-07-05T17:33:40.997Z,5.00
2017-07-05T17:36:13.683Z,4.70
2017-07-05T17:38:45.873Z,4.73
2017-07-05T17:41:18.273Z,4.90
2017-07-05T17:43:51.346Z,7.00
2017-07-05T17:46:23.986Z,6.27
2017-07-05T17:48:56.758Z,6.97
2017-07-05T17:51:28.574Z,5.30
2017-07-05T17:54:00.933Z,5.00
2017-07-05T17:56:33.167Z,5.10
2017-07-05T17:59:05.617Z,4.80
2017-07-05T18:01:37.854Z,5.83
2017-07-05T18:04:10.217Z,4.90
2017-07-05T18:06:42.528Z,4.50
2017-07-05T18:09:14.878Z,4.50
2017-07-05T18:11:47.269Z,5.47
2017-07-05T18:14:19.546Z,5.90
2017-07-05T18:16:52.114Z,5.70
2017-07-05T18:19:24.245Z,5.63
2017-07-05T18:21:56.087Z,5.07
2017-07-05T18:24:28.475Z,4.73
2017-07-05T18:27:00.777Z,4.20
2017-07-05T18:29:33.237Z,4.70
2017-07-05T18:32:06.453Z,4.73
2017-07-05T18:34:38.934Z,5.00
2017-07-05T18:37:11.378Z,4.20
2017-07-05T18:39:43.809Z,4.40
2017-07-05T18:42:16.199Z,4.20
2017-07-05T18:44:48.539Z,4.60
2017-07-05T18:47:20.897Z,3.90
2017-07-05T18:49:53.340Z,4.07
2017-07-05T18:52:25.813Z,4.20
2017-07-05T18:54:58.354Z,4.57
2017-07-05T18:57:30.862Z,5.27
2017-07-05T19:00:03.006Z,4.13
2017-07-05T19:02:35.610Z,4.70
2017-07-05T19:05:07.790Z,4.33
2017-07-05T19:07:40.169Z,5.20
2017-07-05T19:10:12.581Z,6.27
2017-07-05T19:12:44.920Z,5.50
2017-07-05T19:15:17.399Z,4.90
2017-07-05T19:17:49.821Z,4.47
2017-07-05T19:20:22.865Z,4.97
2017-07-05T19:22:54.747Z,5.00
2017-07-05T19:25:27.375Z,4.67
2017-07-05T19:27:59.630Z,4.50
2017-07-05T19:30:32.301Z,4.30
2017-07-05T19:33:04.608Z,4.50
2017-07-05T19:35:37.824Z,4.40
2017-07-05T19:38:10.988Z,6.13
2017-07-05T19:40:43.509Z,4.87
2017-07-05T19:43:15.926Z,4.63
2017-07-05T19:45:48.301Z,5.60
2017-07-05T19:48:21.910Z,5.50
2017-07-05T19:50:54.505Z,5.67
2017-07-05T19:53:26.839Z,5.10
2017-07-05T19:55:59.244Z,5.07
2017-07-05T19:58:32.605Z,5.10
2017-07-05T20:01:05.193Z,5.27
2017-07-05T20:03:37.490Z,5.63
2017-07-05T20:06:10.162Z,5.83
2017-07-05T20:08:42.271Z,6.30
2017-07-05T20:11:14.671Z,5.73
2017-07-05T20:13:46.945Z,5.50
2017-07-05T20:16:20.213Z,5.40
2017-07-05T20:18:52.750Z,5.40
2017-07-05T20:21:25.141Z,6.13
2017-07-05T20:23:57.793Z,5.87
2017-07-05T20:26:29.848Z,5.50
2017-07-05T20:29:03.176Z,5.27
2017-07-05T20:31:35.892Z,5.40
2017-07-05T20:34:08.276Z,5.23
2017-07-05T20:36:40.717Z,5.43
2017-07-05T20:39:13.053Z,5.60
2017-07-05T20:41:45.442Z,5.63
2017-07-05T20:44:17.750Z,5.67
2017-07-05T20:46:50.121Z,4.90
2017-07-05T20:49:22.464Z,5.43
2017-07-05T20:51:55.641Z,5.23
2017-07-05T20:54:28.290Z,5.17
2017-07-05T20:57:00.624Z,4.93
2017-07-05T20:59:33.053Z,5.30
2017-07-05T21:02:05.482Z,5.17
2017-07-05T21:04:38.007Z,6.00
2017-07-05T21:07:10.400Z,5.60
2017-07-05T21:09:42.893Z,6.40
2017-07-05T21:12:15.253Z,6.43
2017-07-05T21:14:47.770Z,5.60
2017-07-05T21:17:27.960Z,7.07
2017-07-05T21:20:00.611Z,6.20
2017-07-05T21:22:33.066Z,6.20
2017-07-05T21:25:05.370Z,5.90
2017-07-05T21:27:37.771Z,6.00
2017-07-05T21:30:10.201Z,6.40
2017-07-05T21:32:42.645Z,6.00
2017-07-05T21:35:15.100Z,5.33
2017-07-05T21:37:47.612Z,6.63
2017-07-05T21:40:20.065Z,6.20
2017-07-05T21:42:52.514Z,6.27
2017-07-05T21:45:28.475Z,6.23
2017-07-05T21:48:03.505Z,6.40
2017-07-05T21:50:35.994Z,7.30
2017-07-05T21:53:08.384Z,7.40
2017-07-05T21:55:40.840Z,7.37
2017-07-05T21:58:13.227Z,7.67
2017-07-05T22:00:45.600Z,6.67
2017-07-05T22:03:18.012Z,6.83
2017-07-05T22:05:50.384Z,7.63
2017-07-05T22:08:22.793Z,7.53
2017-07-05T22:10:55.165Z,7.30
2017-07-05T22:13:27.542Z,7.60
2017-07-05T22:15:59.934Z,7.17
2017-07-05T22:18:32.326Z,7.63
2017-07-05T22:21:04.801Z,7.33
2017-07-05T22:23:37.173Z,7.37
2017-07-05T22:26:09.742Z,7.23
2017-07-05T22:28:42.237Z,7.50
2017-07-05T22:31:14.591Z,7.10
2017-07-05T22:33:47.482Z,6.87
2017-07-05T22:36:21.146Z,7.07
2017-07-05T22:38:53.477Z,7.90
2017-07-05T22:41:25.923Z,7.70
2017-07-05T22:43:58.313Z,7.27
2017-07-05T22:46:30.695Z,6.63
2017-07-05T22:49:04.128Z,6.80
2017-07-05T22:51:36.530Z,6.80
2017-07-05T22:54:08.840Z,7.73
2017-07-05T22:56:41.304Z,6.83
2017-07-05T22:59:14.086Z,6.60
2017-07-05T23:01:46.354Z,7.30
2017-07-05T23:04:18.466Z,6.60
2017-07-05T23:06:51.191Z,6.50
2017-07-05T23:09:23.287Z,6.40
2017-07-05T23:11:55.735Z,6.17
2017-07-05T23:14:28.393Z,6.10
2017-07-05T23:17:00.500Z,7.17
2017-07-05T23:19:32.978Z,7.07
2017-07-05T23:22:05.312Z,6.23
2017-07-05T23:24:37.753Z,6.20
2017-07-05T23:27:10.171Z,6.67
2017-07-05T23:29:42.668Z,6.30
2017-07-05T23:32:15.144Z,6.07
2017-07-05T23:34:48.540Z,6.23
2017-07-05T23:37:21.014Z,5.73
2017-07-05T23:39:53.382Z,6.40
2017-07-05T23:42:25.762Z,6.03
2017-07-05T23:44:58.179Z,5.70
2017-07-05T23:47:30.387Z,6.30
2017-07-05T23:50:02.800Z,7.80
2017-07-05T23:52:35.253Z,6.20
2017-07-05T23:55:07.616Z,6.33
2017-07-05T23:57:40.195Z,6.83
